Time;durP1;ratioP1;P1;durP2;ratioP2;P2;SDS_P1;SDS_P2;PMS_P1;PMS_P2;Temp;Humidity;BMP_temperature;BMP_pressure;BME280_temperature;BME280_humidity;BME280_pressure;Samples;Min_cycle;Max_cycle;Signal;HPM_P1;HPM_P2
2023/07/06 00:00:59;;;;;;;11.55;5.20;;;14.40;99.90;;;;;;4878821;29;20061;-74
2023/07/06 00:03:25;;;;;;;10.07;4.75;;;14.40;99.90;;;;;;4879268;29;20045;-73
2023/07/06 00:05:52;;;;;;;6.88;4.78;;;14.40;99.90;;;;;;4878998;29;20072;-74
2023/07/06 00:08:17;;;;;;;7.80;4.97;;;14.40;99.90;;;;;;4879066;29;20056;-73
2023/07/06 00:10:44;;;;;;;8.40;5.05;;;14.40;99.90;;;;;;4877745;29;20137;-73
2023/07/06 00:13:11;;;;;;;8.57;4.93;;;14.30;99.90;;;;;;4862019;29;20057;-73
2023/07/06 00:15:37;;;;;;;8.98;5.10;;;14.30;99.90;;;;;;4861666;29;20049;-74
2023/07/06 00:18:04;;;;;;;9.32;4.97;;;14.30;99.90;;;;;;4861847;29;20068;-73
2023/07/06 00:20:32;;;;;;;8.85;5.40;;;14.30;99.90;;;;;;4861821;29;20118;-73
2023/07/06 00:22:58;;;;;;;9.23;5.18;;;14.30;99.90;;;;;;4903179;29;20135;-74
2023/07/06 00:25:26;;;;;;;10.05;5.25;;;14.30;99.90;;;;;;4883114;29;20052;-74
2023/07/06 00:27:58;;;;;;;8.68;5.03;;;14.20;99.90;;;;;;4915914;29;20044;-74
2023/07/06 00:30:40;;;;;;;6.82;5.20;;;14.10;99.90;;;;;;4899027;29;20062;-73
2023/07/06 00:33:07;;;;;;;;;;;14.20;99.90;;;;;;4899354;29;20055;-74
2023/07/06 00:35:33;;;;;;;6.47;5.00;;;14.20;99.90;;;;;;4916112;29;19923;-74
2023/07/06 00:37:59;;;;;;;7.70;5.40;;;14.10;99.90;;;;;;4916074;29;20056;-73
2023/07/06 00:40:31;;;;;;;9.38;5.35;;;14.10;99.90;;;;;;4915845;29;20056;-74
2023/07/06 00:42:57;;;;;;;13.23;5.25;;;14.10;99.90;;;;;;4915837;29;20044;-72
2023/07/06 00:45:24;;;;;;;10.38;4.55;;;14.10;99.90;;;;;;4915273;29;20115;-74
2023/07/06 00:47:56;;;;;;;8.48;5.38;;;14.00;99.90;;;;;;4905872;29;20056;-74
2023/07/06 00:50:25;;;;;;;8.15;4.65;;;14.00;99.90;;;;;;4896828;29;20056;-74
2023/07/06 00:52:58;;;;;;;8.10;4.50;;;14.00;99.90;;;;;;4896629;29;20143;-74
2023/07/06 00:55:29;;;;;;;6.45;4.38;;;13.90;99.90;;;;;;4879806;29;20188;-74
2023/07/06 00:58:00;;;;;;;7.07;4.43;;;13.90;99.90;;;;;;4896597;29;20048;-73
2023/07/06 01:00:26;;;;;;;12.68;5.50;;;13.90;99.90;;;;;;4879733;29;20067;-74
2023/07/06 01:02:55;;;;;;;6.00;5.00;;;13.80;99.90;;;;;;4879684;29;20408;-74
2023/07/06 01:05:24;;;;;;;8.68;4.90;;;13.90;99.90;;;;;;4896736;29;20420;-74
2023/07/06 01:07:52;;;;;;;7.32;5.20;;;13.90;99.90;;;;;;4896517;29;20048;-73
2023/07/06 01:10:18;;;;;;;5.07;4.20;;;13.80;99.90;;;;;;4879823;29;20056;-73
2023/07/06 01:12:44;;;;;;;6.53;4.57;;;13.80;99.90;;;;;;4864136;29;20048;-73
2023/07/06 01:15:10;;;;;;;9.50;4.60;;;13.80;99.90;;;;;;4879950;29;20051;-73
2023/07/06 01:17:53;;;;;;;8.27;5.15;;;13.70;99.90;;;;;;4896364;29;20504;-73
2023/07/06 01:20:34;;;;;;;10.13;4.82;;;13.70;99.90;;;;;;4879438;29;20096;-73
2023/07/06 01:23:55;;;;;;;7.53;5.00;;;13.70;99.90;;;;;;4896275;29;20057;-73
2023/07/06 01:27:04;;;;;;;8.20;4.90;;;13.70;99.90;;;;;;4822620;29;20057;-73
2023/07/06 01:29:35;;;;;;;5.50;4.28;;;13.70;99.90;;;;;;4835451;29;20061;-73
2023/07/06 01:32:05;;;;;;;6.95;4.65;;;13.70;99.90;;;;;;4879269;29;20525;-73
2023/07/06 01:35:08;;;;;;;10.95;4.50;;;13.70;99.90;;;;;;4895937;29;20057;-74
2023/07/06 01:37:41;;;;;;;9.38;5.03;;;13.70;99.90;;;;;;4892903;29;20048;-73
2023/07/06 01:40:09;;;;;;;10.43;4.88;;;13.60;99.90;;;;;;4879030;29;20143;-73
2023/07/06 01:42:37;;;;;;;8.25;5.03;;;13.60;99.90;;;;;;4878891;29;20057;-73
2023/07/06 01:45:16;;;;;;;8.82;5.18;;;13.50;99.90;;;;;;4863321;29;20115;-74
2023/07/06 01:47:47;;;;;;;11.55;5.30;;;13.60;99.90;;;;;;4895992;29;20116;-73
2023/07/06 01:50:16;;;;;;;5.63;4.20;;;13.50;99.90;;;;;;4896120;29;20409;-73
2023/07/06 01:53:22;;;;;;;7.18;4.78;;;13.50;99.90;;;;;;4878949;29;20069;-73
2023/07/06 01:56:01;;;;;;;9.00;5.60;;;13.50;99.90;;;;;;4863354;29;20057;-73
2023/07/06 01:58:29;;;;;;;6.90;5.32;;;13.50;99.90;;;;;;4878800;29;20412;-73
2023/07/06 02:01:03;;;;;;;7.72;5.00;;;13.50;99.90;;;;;;4895972;29;20045;-74
2023/07/06 02:03:30;;;;;;;8.50;5.13;;;13.50;99.90;;;;;;4878767;29;20111;-73
2023/07/06 02:05:56;;;;;;;9.45;5.55;;;13.50;99.90;;;;;;4895685;29;20402;-73
2023/07/06 02:08:23;;;;;;;8.63;5.60;;;13.50;99.90;;;;;;4895674;29;20052;-73
2023/07/06 02:10:50;;;;;;;10.38;5.38;;;13.50;99.90;;;;;;4878520;29;20044;-73
2023/07/06 02:13:16;;;;;;;11.55;5.80;;;13.50;99.90;;;;;;4878703;29;20060;-73
2023/07/06 02:15:42;;;;;;;12.65;5.65;;;13.50;99.90;;;;;;4895556;29;20049;-73
2023/07/06 02:18:08;;;;;;;12.77;5.57;;;13.50;99.90;;;;;;4878733;29;20059;-73
2023/07/06 02:20:34;;;;;;;7.35;5.32;;;13.50;99.90;;;;;;4878876;29;20060;-73
2023/07/06 02:23:00;;;;;;;6.35;5.20;;;13.50;99.90;;;;;;4878701;29;20092;-73
2023/07/06 02:25:26;;;;;;;9.35;6.10;;;13.50;99.90;;;;;;4878297;29;20056;-73
2023/07/06 02:27:52;;;;;;;7.35;4.90;;;13.50;99.90;;;;;;4895873;29;20049;-73
2023/07/06 02:30:17;;;;;;;10.75;5.18;;;13.50;99.90;;;;;;4895837;29;20063;-73
2023/07/06 02:32:43;;;;;;;8.18;5.65;;;13.50;99.90;;;;;;4878867;29;20132;-73
2023/07/06 02:35:12;;;;;;;10.85;5.03;;;13.50;99.90;;;;;;4896378;29;20099;-73
2023/07/06 02:37:38;;;;;;;6.63;4.88;;;13.50;99.90;;;;;;4879659;29;20060;-73
2023/07/06 02:40:10;;;;;;;9.20;5.53;;;13.40;99.90;;;;;;4878797;29;20135;-73
2023/07/06 02:42:41;;;;;;;10.52;5.32;;;13.50;99.90;;;;;;4895570;29;20128;-73
2023/07/06 02:45:07;;;;;;;6.88;5.25;;;13.40;99.90;;;;;;4895776;29;20120;-73
2023/07/06 02:47:33;;;;;;;9.00;5.93;;;13.40;99.90;;;;;;4895267;29;20068;-73
2023/07/06 02:49:58;;;;;;;9.20;5.45;;;13.50;99.90;;;;;;4878541;29;20120;-73
2023/07/06 02:52:24;;;;;;;10.68;6.05;;;13.50;99.90;;;;;;4878589;29;20409;-73
2023/07/06 02:54:51;;;;;;;10.20;5.40;;;13.50;99.90;;;;;;4895139;29;20045;-73
2023/07/06 02:57:17;;;;;;;8.88;6.10;;;13.50;99.90;;;;;;4879217;29;20095;-73
2023/07/06 02:59:43;;;;;;;11.90;5.75;;;13.40;99.90;;;;;;4898892;29;20730;-73
2023/07/06 03:02:09;;;;;;;8.43;5.75;;;13.40;99.90;;;;;;4898983;29;20428;-73
2023/07/06 03:04:35;;;;;;;9.25;5.00;;;13.50;99.90;;;;;;4882119;29;20088;-73
2023/07/06 03:07:00;;;;;;;9.15;5.82;;;13.40;99.90;;;;;;4898608;29;20548;-73
2023/07/06 03:09:29;;;;;;;9.05;5.88;;;13.40;99.90;;;;;;4898296;29;20456;-73
2023/07/06 03:11:54;;;;;;;9.80;5.93;;;13.40;99.90;;;;;;4881732;29;20052;-74
2023/07/06 03:14:25;;;;;;;9.95;5.80;;;13.30;99.90;;;;;;4898594;29;20103;-73
2023/07/06 03:16:53;;;;;;;9.63;5.68;;;13.30;99.90;;;;;;4898731;29;20416;-73
2023/07/06 03:19:20;;;;;;;8.07;5.15;;;13.30;99.90;;;;;;4898476;29;20400;-73
2023/07/06 03:21:46;;;;;;;12.02;5.82;;;13.30;99.90;;;;;;4898717;29;20052;-73
2023/07/06 03:24:12;;;;;;;8.50;5.57;;;13.30;99.90;;;;;;4881364;29;20059;-73
2023/07/06 03:26:40;;;;;;;10.25;5.78;;;13.30;99.90;;;;;;4881132;29;20697;-73
2023/07/06 03:29:08;;;;;;;9.63;6.20;;;13.30;99.90;;;;;;4881249;29;20501;-73
2023/07/06 03:31:33;;;;;;;11.95;5.88;;;13.30;99.90;;;;;;4898174;29;20048;-73
2023/07/06 03:34:00;;;;;;;10.82;6.22;;;13.30;99.90;;;;;;4898237;29;20049;-73
2023/07/06 03:36:26;;;;;;;12.23;6.15;;;13.30;99.90;;;;;;4881134;29;20053;-73
2023/07/06 03:38:52;;;;;;;11.48;6.60;;;13.20;99.90;;;;;;4898182;29;20060;-73
2023/07/06 03:41:18;;;;;;;9.88;6.15;;;13.30;99.90;;;;;;4898235;29;20520;-73
2023/07/06 03:43:45;;;;;;;11.25;6.03;;;13.20;99.90;;;;;;4898590;29;20428;-73
2023/07/06 03:46:14;;;;;;;6.55;5.35;;;13.30;99.90;;;;;;4881573;29;20449;-73
2023/07/06 03:48:40;;;;;;;10.15;5.70;;;13.30;99.90;;;;;;4897898;29;20044;-73
2023/07/06 03:51:07;;;;;;;11.02;5.43;;;13.20;99.90;;;;;;4898060;29;20066;-73
2023/07/06 03:53:37;;;;;;;8.80;5.72;;;13.30;99.90;;;;;;4880772;29;20057;-73
2023/07/06 03:56:04;;;;;;;9.98;5.95;;;13.30;99.90;;;;;;4880762;29;20064;-73
2023/07/06 03:58:30;;;;;;;8.90;6.00;;;13.40;99.90;;;;;;4897839;29;20404;-74
2023/07/06 04:00:58;;;;;;;11.27;6.18;;;13.40;99.90;;;;;;4881086;29;20408;-73
2023/07/06 04:03:26;;;;;;;11.73;5.90;;;13.30;99.90;;;;;;4897626;29;20124;-73
2023/07/06 04:05:53;;;;;;;10.68;6.35;;;13.40;99.90;;;;;;4880769;29;20061;-73
2023/07/06 04:08:21;;;;;;;10.70;6.13;;;13.50;99.90;;;;;;4897018;29;20123;-73
2023/07/06 04:10:48;;;;;;;15.35;6.65;;;13.50;99.90;;;;;;4897491;29;20562;-73
2023/07/06 04:13:14;;;;;;;10.38;5.55;;;13.50;99.90;;;;;;4880655;29;20052;-73
2023/07/06 04:15:44;;;;;;;13.68;6.25;;;13.50;99.90;;;;;;4880337;29;20127;-73
2023/07/06 04:18:10;;;;;;;12.48;6.03;;;13.50;99.90;;;;;;4897337;29;20057;-73
2023/07/06 04:20:36;;;;;;;11.15;6.40;;;13.50;99.90;;;;;;4880366;29;20100;-73
2023/07/06 04:23:02;;;;;;;12.68;6.68;;;13.50;99.90;;;;;;4880238;29;20088;-73
2023/07/06 04:25:30;;;;;;;13.52;6.80;;;13.60;99.90;;;;;;4897238;29;20055;-74
2023/07/06 04:28:13;;;;;;;8.70;6.18;;;13.60;99.90;;;;;;4877479;29;20049;-73
2023/07/06 04:30:40;;;;;;;;;;;13.60;99.90;;;;;;4895975;29;20119;-73
2023/07/06 04:33:09;;;;;;;11.60;7.03;;;13.70;99.90;;;;;;4878326;29;19920;-73
2023/07/06 04:35:35;;;;;;;12.40;6.57;;;13.70;99.90;;;;;;4870204;29;20092;-74
2023/07/06 04:38:02;;;;;;;11.73;6.53;;;13.70;99.90;;;;;;4880119;29;20417;-73
2023/07/06 04:40:28;;;;;;;12.85;7.68;;;13.70;99.90;;;;;;4880007;29;20063;-72
2023/07/06 04:42:55;;;;;;;12.43;7.07;;;13.70;99.90;;;;;;4896873;29;20052;-72
2023/07/06 04:45:24;;;;;;;14.93;7.38;;;13.80;99.90;;;;;;4880168;29;20148;-72
2023/07/06 04:47:51;;;;;;;10.40;7.07;;;13.80;99.90;;;;;;4896668;29;20519;-72
2023/07/06 04:50:22;;;;;;;15.23;7.55;;;13.80;99.90;;;;;;4891322;29;20045;-73
2023/07/06 04:52:55;;;;;;;11.70;7.10;;;13.80;99.90;;;;;;4876811;29;20099;-72
2023/07/06 04:55:27;;;;;;;13.73;7.50;;;13.80;99.90;;;;;;4861116;29;20065;-72
2023/07/06 04:57:55;;;;;;;10.43;7.93;;;13.90;99.90;;;;;;4877960;29;20803;-72
2023/07/06 05:00:25;;;;;;;13.40;7.90;;;14.00;99.90;;;;;;4861404;29;20142;-72
2023/07/06 05:02:59;;;;;;;16.77;7.72;;;14.30;99.90;;;;;;4861348;29;20064;-72
2023/07/06 05:05:34;;;;;;;16.65;8.20;;;14.50;99.90;;;;;;4876460;29;20072;-72
2023/07/06 05:08:00;;;;;;;14.27;8.30;;;14.70;99.90;;;;;;4878015;29;20088;-72
2023/07/06 05:10:26;;;;;;;13.68;7.97;;;14.90;99.90;;;;;;4877850;29;20559;-72
2023/07/06 05:12:53;;;;;;;13.43;7.90;;;15.00;99.90;;;;;;4877631;29;20057;-72
2023/07/06 05:15:19;;;;;;;18.65;8.93;;;15.20;99.90;;;;;;4877629;29;20077;-72
2023/07/06 05:17:45;;;;;;;14.38;7.63;;;15.40;99.90;;;;;;4860893;29;20045;-71
2023/07/06 05:20:14;;;;;;;15.40;8.45;;;15.50;99.90;;;;;;4876579;29;20057;-72
2023/07/06 05:22:47;;;;;;;14.00;8.13;;;15.60;99.90;;;;;;4877642;29;20379;-72
2023/07/06 05:25:13;;;;;;;11.88;8.02;;;15.70;99.90;;;;;;4877663;29;20063;-72
2023/07/06 05:27:39;;;;;;;15.02;8.13;;;15.90;99.90;;;;;;4877436;29;20136;-73
2023/07/06 05:30:06;;;;;;;15.88;8.30;;;15.90;99.90;;;;;;4877229;29;20060;-73
2023/07/06 05:32:32;;;;;;;12.50;7.05;;;16.10;99.90;;;;;;4877442;29;20060;-73
2023/07/06 05:34:57;;;;;;;12.20;7.05;;;16.20;99.90;;;;;;4877291;29;20060;-74
2023/07/06 05:37:24;;;;;;;14.80;7.15;;;16.40;99.90;;;;;;4860458;29;20065;-73
2023/07/06 05:39:50;;;;;;;12.68;7.40;;;16.40;99.90;;;;;;4877306;29;20096;-74
2023/07/06 05:42:17;;;;;;;9.63;7.30;;;16.50;99.90;;;;;;4877438;29;20076;-74
2023/07/06 05:44:44;;;;;;;19.35;7.57;;;16.50;99.90;;;;;;4877491;29;20049;-73
2023/07/06 05:47:09;;;;;;;12.05;6.50;;;16.50;99.90;;;;;;4860464;29;20096;-74
2023/07/06 05:49:36;;;;;;;13.65;7.30;;;16.50;99.90;;;;;;4877145;29;20076;-74
2023/07/06 05:52:03;;;;;;;13.50;6.68;;;16.50;99.90;;;;;;4860373;29;20095;-79
2023/07/06 05:54:29;;;;;;;14.02;7.32;;;16.60;99.90;;;;;;4885813;29;20056;-73
2023/07/06 05:56:55;;;;;;;14.07;7.28;;;16.70;99.90;;;;;;4895573;29;20107;-74
2023/07/06 05:59:24;;;;;;;15.40;8.40;;;16.70;99.90;;;;;;4895750;29;20067;-73
2023/07/06 06:01:51;;;;;;;16.98;6.28;;;16.90;99.90;;;;;;4895653;29;20048;-73
2023/07/06 06:04:16;;;;;;;12.07;7.00;;;17.10;99.90;;;;;;4895651;29;20408;-73
2023/07/06 06:06:47;;;;;;;13.40;6.53;;;17.10;99.90;;;;;;4895977;29;20135;-74
2023/07/06 06:09:14;;;;;;;12.43;7.43;;;17.10;99.90;;;;;;4896149;29;20057;-74
2023/07/06 06:11:40;;;;;;;12.52;6.43;;;17.10;99.90;;;;;;4879444;29;20081;-76
2023/07/06 06:14:06;;;;;;;15.65;7.80;;;17.20;99.90;;;;;;4895888;29;20417;-76
2023/07/06 06:16:32;;;;;;;14.93;7.13;;;17.30;99.90;;;;;;4878717;29;20092;-76
2023/07/06 06:19:00;;;;;;;13.65;6.68;;;17.20;99.90;;;;;;4878556;29;20062;-75
2023/07/06 06:21:30;;;;;;;11.15;5.97;;;17.30;99.90;;;;;;4878675;29;20068;-75
2023/07/06 06:24:02;;;;;;;13.07;6.72;;;17.40;99.90;;;;;;4895686;29;20513;-76
2023/07/06 06:26:29;;;;;;;12.02;6.70;;;17.40;99.90;;;;;;4878663;29;20568;-75
2023/07/06 06:28:57;;;;;;;15.40;7.25;;;17.50;99.90;;;;;;4878222;29;20064;-75
2023/07/06 06:31:24;;;;;;;13.82;6.65;;;17.50;99.90;;;;;;4896700;29;20060;-75
2023/07/06 06:33:50;;;;;;;21.58;7.05;;;17.50;99.90;;;;;;4899905;29;20052;-75
2023/07/06 06:36:17;;;;;;;15.95;6.35;;;17.40;99.90;;;;;;4886596;29;20067;-75
2023/07/06 06:38:44;;;;;;;16.75;6.70;;;17.40;99.90;;;;;;4903484;29;20045;-74
2023/07/06 06:41:11;;;;;;;11.80;6.32;;;17.40;99.90;;;;;;4902784;29;20056;-74
2023/07/06 06:43:41;;;;;;;16.63;6.95;;;17.30;99.90;;;;;;4902902;29;20052;-73
2023/07/06 06:46:12;;;;;;;14.88;6.50;;;17.40;99.90;;;;;;4885785;29;20051;-74
2023/07/06 06:48:42;;;;;;;13.95;7.10;;;17.50;99.90;;;;;;4886077;29;20068;-74
2023/07/06 06:51:10;;;;;;;13.95;6.85;;;17.50;99.90;;;;;;4870047;29;20056;-72
2023/07/06 06:53:39;;;;;;;10.40;6.43;;;17.60;99.90;;;;;;4901752;29;20076;-73
2023/07/06 06:56:06;;;;;;;12.65;7.07;;;17.60;99.90;;;;;;4868881;29;20063;-73
2023/07/06 06:58:33;;;;;;;15.60;6.78;;;17.70;99.90;;;;;;4867264;29;20417;-74
2023/07/06 07:01:00;;;;;;;14.23;7.10;;;17.80;99.90;;;;;;4881996;29;20540;-74
2023/07/06 07:03:29;;;;;;;15.70;7.20;;;17.90;99.90;;;;;;4881980;29;20109;-75
2023/07/06 07:06:03;;;;;;;17.52;7.45;;;18.00;99.90;;;;;;4899053;29;20445;-74
2023/07/06 07:08:29;;;;;;;12.93;6.72;;;18.10;99.90;;;;;;4882208;29;20190;-73
2023/07/06 07:10:58;;;;;;;20.45;6.78;;;18.20;99.90;;;;;;4898751;29;20052;-74
2023/07/06 07:13:26;;;;;;;20.10;7.40;;;18.20;99.90;;;;;;4898671;29;20063;-75
2023/07/06 07:15:53;;;;;;;14.40;7.40;;;18.20;99.90;;;;;;4898340;29;20067;-75
2023/07/06 07:18:21;;;;;;;17.77;6.25;;;18.10;99.90;;;;;;4874709;29;20092;-75
2023/07/06 07:20:52;;;;;;;16.90;6.78;;;18.00;99.90;;;;;;4863163;29;20137;-75
2023/07/06 07:23:26;;;;;;;15.90;6.60;;;17.90;99.90;;;;;;4879666;29;20101;-75
2023/07/06 07:25:52;;;;;;;15.43;6.45;;;17.90;99.90;;;;;;4881912;29;20109;-74
2023/07/06 07:28:18;;;;;;;14.27;6.40;;;17.90;99.90;;;;;;4885547;29;20048;-74
2023/07/06 07:30:57;;;;;;;12.73;6.38;;;17.90;99.90;;;;;;4897938;29;20061;-75
2023/07/06 07:33:24;;;;;;;18.55;7.15;;;18.00;99.90;;;;;;4892827;29;20092;-75
2023/07/06 07:35:53;;;;;;;16.77;8.05;;;18.00;99.90;;;;;;4895313;29;20048;-74
2023/07/06 07:38:20;;;;;;;12.25;7.63;;;18.00;99.90;;;;;;4889534;29;20052;-74
2023/07/06 07:40:56;;;;;;;17.48;7.68;;;18.00;99.90;;;;;;4895167;29;20048;-74
2023/07/06 07:43:25;;;;;;;17.40;8.60;;;18.10;99.90;;;;;;4897260;29;20052;-76
2023/07/06 07:46:00;;;;;;;19.30;10.43;;;18.30;99.90;;;;;;4897953;29;20064;-73
2023/07/06 07:48:27;;;;;;;22.17;11.30;;;18.30;99.90;;;;;;4881022;29;20056;-72
2023/07/06 07:50:56;;;;;;;21.80;12.07;;;18.30;99.90;;;;;;4865477;29;20064;-72
2023/07/06 07:53:25;;;;;;;23.02;11.32;;;18.50;99.90;;;;;;4880981;29;20136;-72
2023/07/06 07:55:52;;;;;;;24.75;11.32;;;18.60;99.90;;;;;;4880764;29;20529;-73
2023/07/06 07:58:17;;;;;;;19.48;11.23;;;18.50;99.90;;;;;;4880788;29;20501;-73
2023/07/06 08:00:57;;;;;;;20.85;10.52;;;18.60;99.90;;;;;;4880741;29;20067;-72
2023/07/06 08:03:24;;;;;;;29.60;9.55;;;18.60;99.90;;;;;;4880974;29;20064;-73
2023/07/06 08:05:57;;;;;;;21.60;9.02;;;18.60;99.90;;;;;;4880922;29;20048;-73
2023/07/06 08:08:23;;;;;;;20.17;9.30;;;18.60;99.90;;;;;;4897842;29;20045;-73
2023/07/06 08:10:50;;;;;;;21.52;8.23;;;18.70;99.90;;;;;;4880637;29;20052;-73
2023/07/06 08:13:17;;;;;;;12.02;7.43;;;18.70;99.90;;;;;;4897082;29;20052;-74
2023/07/06 08:15:44;;;;;;;16.15;8.80;;;18.80;99.90;;;;;;4880603;29;20060;-73
2023/07/06 08:18:10;;;;;;;16.48;8.02;;;18.90;99.90;;;;;;4897583;29;20088;-73
2023/07/06 08:20:37;;;;;;;16.85;8.90;;;19.10;99.90;;;;;;4897357;29;20131;-74
2023/07/06 08:23:06;;;;;;;12.48;7.95;;;19.20;99.90;;;;;;4897370;29;20057;-74
2023/07/06 08:25:37;;;;;;;10.95;6.97;;;19.10;99.90;;;;;;4897266;29;20401;-73
2023/07/06 08:28:07;;;;;;;11.85;6.30;;;19.00;99.90;;;;;;4880075;29;20120;-74
2023/07/06 08:30:33;;;;;;;13.20;6.95;;;19.20;99.90;;;;;;4897017;29;20057;-74
2023/07/06 08:33:02;;;;;;;11.27;7.03;;;19.30;99.90;;;;;;4880280;29;20088;-74
2023/07/06 08:35:30;;;;;;;10.65;7.47;;;19.40;99.90;;;;;;4897139;29;20457;-74
2023/07/06 08:37:57;;;;;;;16.13;7.90;;;19.50;99.90;;;;;;4897312;29;20053;-74
2023/07/06 08:40:28;;;;;;;14.30;6.90;;;19.60;99.90;;;;;;4880017;29;20056;-73
2023/07/06 08:42:57;;;;;;;11.93;6.55;;;19.80;99.90;;;;;;4896943;29;20051;-74
2023/07/06 08:45:40;;;;;;;14.75;7.75;;;19.80;99.90;;;;;;4897124;29;20048;-74
2023/07/06 08:48:12;;;;;;;11.05;6.28;;;19.80;99.90;;;;;;4897198;29;20099;-74
2023/07/06 08:50:40;;;;;;;13.32;6.20;;;19.90;99.90;;;;;;4897112;29;20057;-74
2023/07/06 08:53:09;;;;;;;10.68;6.22;;;20.10;99.90;;;;;;4880150;29;20533;-74
2023/07/06 08:55:36;;;;;;;9.40;5.30;;;20.10;99.90;;;;;;4878899;29;20532;-74
2023/07/06 08:58:03;;;;;;;11.02;6.22;;;20.10;99.90;;;;;;4877905;29;20064;-74
2023/07/06 09:00:31;;;;;;;8.57;5.50;;;20.00;99.90;;;;;;4879952;29;20063;-74
2023/07/06 09:03:15;;;;;;;7.72;5.40;;;20.20;99.90;;;;;;4879635;29;20060;-74
2023/07/06 09:05:46;;;;;;;9.38;4.93;;;20.30;99.90;;;;;;4896959;29;20736;-74
2023/07/06 09:08:15;;;;;;;8.30;4.53;;;20.30;99.90;;;;;;4896640;29;20068;-74
2023/07/06 09:10:41;;;;;;;10.23;4.88;;;20.30;99.90;;;;;;4896596;29;20626;-74
2023/07/06 09:13:27;;;;;;;10.15;5.18;;;20.40;99.90;;;;;;4896475;29;20409;-74
2023/07/06 09:16:01;;;;;;;10.15;4.68;;;20.50;99.90;;;;;;4896220;29;20056;-74
2023/07/06 09:18:29;;;;;;;9.38;4.57;;;20.40;99.90;;;;;;4879460;29;20061;-74
2023/07/06 09:20:58;;;;;;;9.07;3.85;;;20.40;99.90;;;;;;4896529;29;20464;-74
2023/07/06 09:23:24;;;;;;;10.60;4.90;;;20.30;99.90;;;;;;4879343;29;20052;-74
2023/07/06 09:25:50;;;;;;;9.38;4.43;;;20.20;99.90;;;;;;4878933;29;20063;-74
2023/07/06 09:28:23;;;;;;;7.95;3.42;;;20.10;99.90;;;;;;4879397;29;20401;-74
2023/07/06 09:31:04;;;;;;;12.18;3.70;;;20.10;99.90;;;;;;4863701;29;20060;-74
2023/07/06 09:33:30;;;;;;;7.35;3.45;;;20.00;99.90;;;;;;4879279;29;20057;-74
2023/07/06 09:35:57;;;;;;;7.57;3.05;;;20.10;99.90;;;;;;4889331;29;20429;-75
2023/07/06 09:38:24;;;;;;;7.65;3.10;;;20.10;99.90;;;;;;4870222;29;20103;-72
2023/07/06 09:40:52;;;;;;;8.50;3.13;;;20.10;99.90;;;;;;4884522;29;20119;-76
2023/07/06 09:43:27;;;;;;;8.40;3.38;;;20.10;99.90;;;;;;4881747;29;20417;-74
2023/07/06 09:45:53;;;;;;;7.47;3.08;;;20.10;99.90;;;;;;4883009;29;20437;-73
2023/07/06 09:48:37;;;;;;;6.70;3.00;;;20.10;99.90;;;;;;4863395;29;20148;-71
2023/07/06 09:51:08;;;;;;;6.55;3.20;;;20.20;99.90;;;;;;4873211;29;20056;-71
2023/07/06 09:53:51;;;;;;;11.48;4.00;;;20.30;99.90;;;;;;4896254;29;20132;-70
2023/07/06 09:56:17;;;;;;;5.03;3.15;;;20.40;99.90;;;;;;4879015;29;20063;-69
2023/07/06 09:58:45;;;;;;;6.18;2.90;;;20.60;99.90;;;;;;4878885;29;20056;-70
2023/07/06 10:01:36;;;;;;;4.93;2.25;;;20.70;99.90;;;;;;4895686;29;20400;-71
2023/07/06 10:04:20;;;;;;;4.32;2.17;;;20.80;99.90;;;;;;4914148;29;20052;-70
2023/07/06 10:06:55;;;;;;;6.18;2.03;;;20.80;99.90;;;;;;4914189;29;20056;-70
2023/07/06 10:09:27;;;;;;;5.43;2.40;;;20.90;99.90;;;;;;4893887;29;20061;-71
2023/07/06 10:12:01;;;;;;;7.35;2.50;;;21.00;99.90;;;;;;4895518;29;20310;-70
2023/07/06 10:14:44;;;;;;;2.63;1.83;;;20.90;99.90;;;;;;4895811;29;20040;-70
2023/07/06 10:17:37;;;;;;;5.78;2.40;;;20.90;99.90;;;;;;4886102;29;20145;-70
2023/07/06 10:20:08;;;;;;;4.47;2.10;;;20.80;99.90;;;;;;4882327;29;20065;-70
2023/07/06 10:22:59;;;;;;;7.88;2.40;;;20.80;99.90;;;;;;4868037;29;20056;-70
2023/07/06 10:25:27;;;;;;;3.72;2.00;;;20.80;99.90;;;;;;4890602;29;20147;-70
2023/07/06 10:27:58;;;;;;;3.22;2.08;;;20.80;99.90;;;;;;4886704;29;20048;-72
2023/07/06 10:30:32;;;;;;;8.00;2.55;;;20.90;99.90;;;;;;4886379;29;20077;-72
2023/07/06 10:33:06;;;;;;;8.35;2.63;;;21.10;99.90;;;;;;4874248;29;20128;-72
2023/07/06 10:35:45;;;;;;;7.35;2.50;;;21.10;99.90;;;;;;4878781;29;20054;-72
2023/07/06 10:38:11;;;;;;;4.72;2.58;;;21.30;99.90;;;;;;4895642;29;20057;-73
2023/07/06 10:40:37;;;;;;;9.48;3.30;;;21.40;99.90;;;;;;4895713;29;20056;-72
2023/07/06 10:43:20;;;;;;;5.13;2.80;;;21.40;99.90;;;;;;4895605;29;20053;-72
2023/07/06 10:45:59;;;;;;;8.00;2.85;;;21.20;99.90;;;;;;4878793;29;20127;-72
2023/07/06 10:48:25;;;;;;;6.30;2.28;;;21.30;99.90;;;;;;4895380;29;20056;-73
2023/07/06 10:51:05;;;;;;;5.43;2.13;;;21.20;99.90;;;;;;4878880;29;20056;-73
2023/07/06 10:53:39;;;;;;;9.02;2.40;;;21.40;99.90;;;;;;4895267;29;20080;-72
2023/07/06 10:56:11;;;;;;;5.65;2.20;;;21.50;99.90;;;;;;4895511;29;20458;-70
2023/07/06 10:58:57;;;;;;;;;;;21.50;99.90;;;;;;4879101;29;20072;-70
2023/07/06 11:01:45;;;;;;;5.57;1.70;;;21.70;99.90;;;;;;4895289;29;20383;-70
2023/07/06 11:04:41;;;;;;;6.03;1.67;;;21.70;99.90;;;;;;4895143;29;20069;-70
2023/07/06 11:07:09;;;;;;;3.15;1.50;;;21.60;99.90;;;;;;4878450;29;20063;-71
2023/07/06 11:10:12;;;;;;;6.00;1.80;;;21.60;99.90;;;;;;4895232;29;20052;-71
2023/07/06 11:13:01;;;;;;;5.50;1.67;;;21.60;99.90;;;;;;4894390;29;20048;-75
2023/07/06 11:15:41;;;;;;;5.45;1.77;;;21.60;99.90;;;;;;4881687;29;20473;-75
2023/07/06 11:18:22;;;;;;;6.93;1.58;;;21.80;99.90;;;;;;4879491;29;20509;-76
2023/07/06 11:21:21;;;;;;;3.55;1.58;;;21.70;99.90;;;;;;4899115;29;20396;-75
2023/07/06 11:23:57;;;;;;;5.20;1.70;;;21.70;99.90;;;;;;4882056;29;20128;-75
2023/07/06 11:26:51;;;;;;;4.60;1.73;;;21.60;99.90;;;;;;4877074;29;20060;-75
2023/07/06 11:29:28;;;;;;;2.90;1.40;;;21.60;99.90;;;;;;4880369;29;20098;-75
2023/07/06 11:32:06;;;;;;;3.30;1.52;;;21.60;99.90;;;;;;4880247;29;20061;-75
2023/07/06 11:35:07;;;;;;;2.85;1.42;;;21.70;99.90;;;;;;4880476;29;20052;-76
2023/07/06 11:37:42;;;;;;;8.18;1.92;;;21.80;99.90;;;;;;4880292;29;20065;-75
2023/07/06 11:40:22;;;;;;;3.55;1.20;;;21.70;99.90;;;;;;4894196;29;20057;-74
2023/07/06 11:43:18;;;;;;;12.70;3.80;;;21.80;99.90;;;;;;4887400;29;20045;-73
2023/07/06 11:46:22;;;;;;;79.68;8.73;;;21.90;99.90;;;;;;4879872;29;20052;-73
2023/07/06 11:48:57;;;;;;;9.75;2.08;;;22.00;99.90;;;;;;4879639;29;20113;-74
2023/07/06 11:51:24;;;;;;;7.28;1.77;;;22.00;99.90;;;;;;4879430;29;20080;-73
2023/07/06 11:53:54;;;;;;;8.73;2.15;;;22.20;99.90;;;;;;4879418;29;20143;-74
2023/07/06 11:56:35;;;;;;;4.20;1.75;;;22.10;99.90;;;;;;4879527;29;20687;-73
2023/07/06 11:59:04;;;;;;;5.30;2.00;;;22.10;99.90;;;;;;4863047;29;20061;-73
2023/07/06 12:01:57;;;;;;;4.50;1.60;;;22.20;99.90;;;;;;4879504;29;20140;-74
2023/07/06 12:04:26;;;;;;;4.30;1.60;;;22.30;99.90;;;;;;4862518;29;20555;-74
2023/07/06 12:06:54;;;;;;;2.85;1.33;;;22.20;99.90;;;;;;4867280;29;20067;-75
2023/07/06 12:09:25;;;;;;;3.92;1.92;;;22.30;99.90;;;;;;4869860;29;20088;-76
2023/07/06 12:12:06;;;;;;;5.97;2.22;;;22.30;99.90;;;;;;4888688;29;20056;-75
2023/07/06 12:14:34;;;;;;;6.32;1.48;;;22.50;99.90;;;;;;4893711;29;20048;-76
2023/07/06 12:17:02;;;;;;;4.32;1.80;;;22.60;99.90;;;;;;4870275;29;20590;-76
2023/07/06 12:19:30;;;;;;;5.78;1.60;;;22.60;99.90;;;;;;4872031;29;20060;-76
2023/07/06 12:21:57;;;;;;;4.18;1.50;;;22.50;99.90;;;;;;4888198;29;20048;-75
2023/07/06 12:24:26;;;;;;;3.00;1.50;;;22.60;99.90;;;;;;4886607;29;20519;-74
2023/07/06 12:26:56;;;;;;;3.95;1.70;;;22.60;99.90;;;;;;4888310;29;20056;-75
2023/07/06 12:29:26;;;;;;;3.83;1.42;;;22.70;99.90;;;;;;4871343;29;20121;-75
2023/07/06 12:31:57;;;;;;;3.92;1.45;;;22.70;99.90;;;;;;4887647;29;20092;-75
2023/07/06 12:34:32;;;;;;;5.03;1.75;;;22.80;99.90;;;;;;4894805;29;20419;-75
2023/07/06 12:37:02;;;;;;;2.72;1.63;;;22.80;99.90;;;;;;4880606;29;20061;-75
2023/07/06 12:39:40;;;;;;;2.85;1.73;;;22.80;99.90;;;;;;4897757;29;20048;-75
2023/07/06 12:42:08;;;;;;;5.60;1.58;;;22.90;99.90;;;;;;4897173;29;20127;-75
2023/07/06 12:44:37;;;;;;;9.65;2.53;;;22.70;99.90;;;;;;4887430;29;20120;-76
2023/07/06 12:47:22;;;;;;;8.57;2.60;;;22.50;99.90;;;;;;4866889;29;20061;-75
2023/07/06 12:49:50;;;;;;;5.85;2.47;;;22.40;99.90;;;;;;4889604;29;20071;-76
2023/07/06 12:52:17;;;;;;;8.88;2.40;;;22.20;99.90;;;;;;4897160;29;20080;-75
2023/07/06 12:54:53;;;;;;;6.63;3.05;;;22.20;99.90;;;;;;4897158;29;20058;-76
2023/07/06 12:57:25;;;;;;;14.07;3.95;;;22.00;99.90;;;;;;4896635;29;20508;-76
2023/07/06 12:59:56;;;;;;;9.18;3.50;;;21.80;99.90;;;;;;4878927;29;20128;-76
2023/07/06 13:02:24;;;;;;;6.82;3.13;;;21.70;99.90;;;;;;4861551;29;20057;-76